createdAt,value
2023-05-22T00:01:19.608Z,95136.44
2023-05-22T00:03:48.720Z,95119.31
2023-05-22T00:06:16.224Z,95132.22
2023-05-22T00:08:43.750Z,95130.09
2023-05-22T00:11:11.072Z,95124.22
2023-05-22T00:13:38.597Z,95115.09
2023-05-22T00:16:06.261Z,95125.28
2023-05-22T00:18:34.004Z,95116.97
2023-05-22T00:21:01.272Z,95126.41
2023-05-22T00:23:30.166Z,95125.84
2023-05-22T00:25:57.431Z,95122.09
2023-05-22T00:28:25.008Z,95112.19
2023-05-22T00:30:52.790Z,95110.31
2023-05-22T00:33:20.451Z,95121.59
2023-05-22T00:35:47.751Z,95117.28
2023-05-22T00:38:32.965Z,95115.16
2023-05-22T00:41:06.699Z,95115.94
2023-05-22T00:43:34.649Z,95114.63
2023-05-22T00:46:02.374Z,95118.66
2023-05-22T00:48:30.124Z,95114.34
2023-05-22T00:50:59.046Z,95105.50
2023-05-22T00:53:29.300Z,95115.69
2023-05-22T00:55:58.905Z,95115.69
2023-05-22T00:58:27.415Z,95119.41
2023-05-22T01:00:55.827Z,95117.53
2023-05-22T01:03:27.279Z,95120.22
2023-05-22T01:05:55.960Z,95115.66
2023-05-22T01:08:23.778Z,95114.59
2023-05-22T01:11:00.908Z,95119.41
2023-05-22T01:13:41.908Z,95125.03
2023-05-22T01:16:24.068Z,95120.16
2023-05-22T01:19:16.328Z,95128.72
2023-05-22T01:22:11.410Z,95125.75
2023-05-22T01:25:17.191Z,95131.34
2023-05-22T01:27:50.551Z,95132.16
2023-05-22T01:30:21.633Z,95130.50
2023-05-22T01:32:50.398Z,95128.63
2023-05-22T01:35:21.790Z,95121.84
2023-05-22T01:37:49.845Z,95137.59
2023-05-22T01:40:19.760Z,95138.38
2023-05-22T01:42:47.004Z,95133.53
2023-05-22T01:45:14.851Z,95138.06
2023-05-22T01:47:42.158Z,95140.97
2023-05-22T01:50:10.170Z,95141.75
2023-05-22T01:52:46.687Z,95133.41
2023-05-22T01:55:20.579Z,95149.97
2023-05-22T01:57:59.834Z,95138.69
2023-05-22T02:00:28.573Z,95130.03
2023-05-22T02:03:07.859Z,95132.69
2023-05-22T02:05:40.117Z,95139.69
2023-05-22T02:08:08.228Z,95143.09
2023-05-22T02:10:41.924Z,95142.63
2023-05-22T02:13:11.199Z,95138.84
2023-05-22T02:15:39.061Z,95138.81
2023-05-22T02:18:15.282Z,95141.53
2023-05-22T02:20:45.895Z,95136.16
2023-05-22T02:23:13.278Z,95134.28
2023-05-22T02:25:41.377Z,95137.94
2023-05-22T02:28:08.627Z,95133.09
2023-05-22T02:30:36.382Z,95116.69
2023-05-22T02:33:05.779Z,95131.72
2023-05-22T02:35:33.326Z,95139.69
2023-05-22T02:38:02.950Z,95118.38
2023-05-22T02:40:30.494Z,95130.66
2023-05-22T02:42:57.709Z,95130.41
2023-05-22T02:45:25.494Z,95132.88
2023-05-22T02:47:52.881Z,95135.03
2023-05-22T02:50:20.466Z,95126.75
2023-05-22T02:52:47.844Z,95127.50
2023-05-22T02:55:15.620Z,95120.13
2023-05-22T02:57:42.832Z,95127.41
2023-05-22T03:00:11.849Z,95110.38
2023-05-22T03:02:39.433Z,95117.06
2023-05-22T03:05:08.285Z,95128.31
2023-05-22T03:07:35.561Z,95125.47
2023-05-22T03:10:03.320Z,95131.81
2023-05-22T03:12:30.696Z,95118.41
2023-05-22T03:14:58.308Z,95113.69
2023-05-22T03:17:25.710Z,95130.00
2023-05-22T03:19:53.259Z,95120.88
2023-05-22T03:22:20.550Z,95118.50
2023-05-22T03:24:48.241Z,95123.91
2023-05-22T03:27:17.364Z,95109.72
2023-05-22T03:29:47.417Z,95119.72
2023-05-22T03:32:16.318Z,95122.72
2023-05-22T03:34:43.921Z,95125.38
2023-05-22T03:37:12.651Z,95117.19
2023-05-22T03:39:40.275Z,95105.34
2023-05-22T03:42:21.602Z,95120.94
2023-05-22T03:44:50.242Z,95126.75
2023-05-22T03:47:18.554Z,95123.75
2023-05-22T03:49:47.116Z,95122.72
2023-05-22T03:52:14.380Z,95133.19
2023-05-22T03:54:41.914Z,95127.94
2023-05-22T03:57:09.192Z,95128.84
2023-05-22T03:59:36.904Z,95110.38
2023-05-22T04:02:04.394Z,95117.72
2023-05-22T04:04:34.279Z,95121.56
2023-05-22T04:07:02.903Z,95114.03
2023-05-22T04:09:32.248Z,95121.66
2023-05-22T04:11:59.477Z,95121.97
2023-05-22T04:14:27.054Z,95121.47
2023-05-22T04:16:54.545Z,95114.34
2023-05-22T04:19:22.386Z,95127.50
2023-05-22T04:21:49.694Z,95122.22
2023-05-22T04:24:18.504Z,95120.94
2023-05-22T04:26:45.665Z,95117.81
2023-05-22T04:29:14.844Z,95118.13
2023-05-22T04:31:43.114Z,95105.88
2023-05-22T04:34:13.287Z,95116.66
2023-05-22T04:36:40.594Z,95100.56
2023-05-22T04:39:08.359Z,95095.47
2023-05-22T04:41:35.516Z,95103.84
2023-05-22T04:44:04.377Z,95098.25
2023-05-22T04:46:31.820Z,95107.34
2023-05-22T04:49:02.277Z,95097.44
2023-05-22T04:51:31.389Z,95103.88
2023-05-22T04:53:58.985Z,95097.72
2023-05-22T04:56:36.090Z,95096.63
2023-05-22T04:59:09.448Z,95094.75
2023-05-22T05:01:38.716Z,95096.34
2023-05-22T05:04:06.493Z,95085.88
2023-05-22T05:06:34.964Z,95071.06
2023-05-22T05:09:07.247Z,95088.47
2023-05-22T05:11:35.920Z,95088.19
2023-05-22T05:14:04.236Z,95082.00
2023-05-22T05:16:31.557Z,95075.75
2023-05-22T05:18:59.385Z,95078.34
2023-05-22T05:21:28.180Z,95080.91
2023-05-22T05:23:58.898Z,95075.66
2023-05-22T05:26:27.511Z,95083.34
2023-05-22T05:28:56.847Z,95084.63
2023-05-22T05:31:28.938Z,95086.75
2023-05-22T05:34:16.774Z,95084.16
2023-05-22T05:36:52.705Z,95078.63
2023-05-22T05:39:22.146Z,95082.72
2023-05-22T05:41:49.787Z,95084.97
2023-05-22T05:44:17.387Z,95073.53
2023-05-22T05:46:44.774Z,95083.22
2023-05-22T05:49:13.177Z,95075.16
2023-05-22T05:51:41.961Z,95066.06
2023-05-22T05:54:11.195Z,95072.19
2023-05-22T05:56:38.651Z,95071.66
2023-05-22T05:59:06.350Z,95064.66
2023-05-22T06:01:44.703Z,95061.34
2023-05-22T06:04:18.877Z,95063.06
2023-05-22T06:06:47.973Z,95074.50
2023-05-22T06:09:18.740Z,95056.91
2023-05-22T06:12:12.653Z,95063.69
2023-05-22T06:14:42.574Z,95047.59
2023-05-22T06:17:10.404Z,95052.06
2023-05-22T06:19:41.863Z,95050.47
2023-05-22T06:22:10.861Z,95055.88
2023-05-22T06:24:40.903Z,95050.09
2023-05-22T06:27:14.524Z,95053.66
2023-05-22T06:29:44.395Z,95047.38
2023-05-22T06:32:12.521Z,95055.09
2023-05-22T06:34:45.052Z,95052.78
2023-05-22T06:37:14.178Z,95050.31
2023-05-22T06:39:45.168Z,95050.00
2023-05-22T06:42:36.294Z,95050.22
2023-05-22T06:45:26.874Z,95046.41
2023-05-22T06:48:26.479Z,95036.78
2023-05-22T06:51:13.050Z,95044.69
2023-05-22T06:53:42.023Z,95027.78
2023-05-22T06:56:15.021Z,95036.16
2023-05-22T06:58:59.958Z,95031.69
2023-05-22T07:01:47.650Z,95021.91
2023-05-22T07:04:23.540Z,95020.13
2023-05-22T07:06:58.930Z,95030.22
2023-05-22T07:09:31.358Z,95014.91
2023-05-22T07:12:09.073Z,95024.56
2023-05-22T07:14:38.179Z,95011.56
2023-05-22T07:17:07.853Z,95013.53
2023-05-22T07:19:46.359Z,95003.00
2023-05-22T07:22:20.815Z,95012.59
2023-05-22T07:24:54.444Z,95011.41
2023-05-22T07:27:26.455Z,95004.41
2023-05-22T07:29:56.093Z,95006.88
2023-05-22T07:32:28.842Z,95007.25
2023-05-22T07:34:59.849Z,94999.59
2023-05-22T07:37:29.516Z,94995.69
2023-05-22T07:39:58.180Z,95005.44
2023-05-22T07:42:29.925Z,94985.31
2023-05-22T07:49:29.892Z,94988.72
2023-05-22T07:53:22.096Z,94973.69
2023-05-22T07:57:00.605Z,94941.78
2023-05-22T08:07:06.316Z,94943.66
2023-05-22T08:10:52.187Z,94928.88
2023-05-22T08:14:17.932Z,94938.66
2023-05-22T08:21:37.966Z,94954.16
2023-05-22T08:24:41.271Z,94947.06
2023-05-22T08:31:03.884Z,94972.91
2023-05-22T08:33:37.556Z,94951.63
2023-05-22T08:36:05.132Z,94961.66
2023-05-22T08:38:32.745Z,94961.94
2023-05-22T08:41:00.382Z,94964.63
2023-05-22T08:43:28.891Z,94961.97
2023-05-22T08:46:00.897Z,94957.72
2023-05-22T08:48:32.852Z,94963.03
2023-05-22T08:51:04.588Z,94964.16
2023-05-22T08:53:36.054Z,94962.81
2023-05-22T08:56:06.296Z,94958.22
2023-05-22T08:58:35.901Z,94956.06
2023-05-22T09:01:04.927Z,94953.47
2023-05-22T09:03:35.647Z,94951.38
2023-05-22T09:06:03.654Z,94955.41
2023-05-22T09:08:31.317Z,94943.97
2023-05-22T09:10:58.627Z,94944.78
2023-05-22T09:13:31.249Z,94947.50
2023-05-22T09:16:11.780Z,94942.56
2023-05-22T09:18:40.336Z,94940.88
2023-05-22T09:21:21.725Z,94938.25
2023-05-22T09:24:00.258Z,94943.22
2023-05-22T09:26:31.020Z,94933.47
2023-05-22T09:29:00.384Z,94939.78
2023-05-22T09:31:29.639Z,94938.59
2023-05-22T09:33:59.044Z,94931.81
2023-05-22T09:36:35.431Z,94935.00
2023-05-22T09:39:04.664Z,94931.88
2023-05-22T09:41:36.629Z,94917.63
2023-05-22T09:44:14.913Z,94926.75
2023-05-22T09:46:44.455Z,94929.84
2023-05-22T09:49:15.033Z,94921.22
2023-05-22T09:51:48.417Z,94928.56
2023-05-22T09:54:17.685Z,94919.53
2023-05-22T09:56:49.111Z,94903.16
2023-05-22T09:59:22.182Z,94921.34
2023-05-22T10:01:50.714Z,94919.59
2023-05-22T10:04:19.429Z,94920.38
2023-05-22T10:06:51.716Z,94907.34
2023-05-22T10:09:24.167Z,94912.84
2023-05-22T10:11:57.965Z,94900.09
2023-05-22T10:14:26.447Z,94895.09
2023-05-22T10:16:54.540Z,94901.09
2023-05-22T10:19:27.459Z,94895.44
2023-05-22T10:21:57.760Z,94894.50
2023-05-22T10:24:25.696Z,94892.97
2023-05-22T10:26:54.571Z,94897.25
2023-05-22T10:29:29.311Z,94891.00
2023-05-22T10:32:30.664Z,94900.84
2023-05-22T10:35:21.383Z,94900.56
2023-05-22T10:38:36.629Z,94892.41
2023-05-22T10:41:04.816Z,94890.94
2023-05-22T10:43:32.927Z,94882.13
2023-05-22T10:46:04.770Z,94900.94
2023-05-22T10:48:45.635Z,94890.56
2023-05-22T10:51:14.871Z,94874.81
2023-05-22T10:53:48.176Z,94887.13
2023-05-22T10:56:16.868Z,94880.38
2023-05-22T10:58:57.905Z,94880.25
2023-05-22T11:01:26.779Z,94869.91
2023-05-22T11:04:16.063Z,94873.84
2023-05-22T11:07:04.692Z,94874.16
2023-05-22T11:09:46.057Z,94872.44
2023-05-22T11:12:13.781Z,94867.97
2023-05-22T11:14:41.104Z,94871.31
2023-05-22T11:17:12.248Z,94855.28
2023-05-22T11:19:41.840Z,94866.69
2023-05-22T11:22:10.640Z,94867.78
2023-05-22T11:24:38.333Z,94868.34
2023-05-22T11:27:10.100Z,94857.13
2023-05-22T11:29:43.409Z,94859.09
2023-05-22T11:32:21.191Z,94849.78
2023-05-22T11:34:55.401Z,94855.03
2023-05-22T11:37:24.441Z,94839.69
2023-05-22T11:39:56.740Z,94849.72
2023-05-22T11:42:25.181Z,94850.44
2023-05-22T11:44:54.898Z,94842.44
2023-05-22T11:47:25.003Z,94837.34
2023-05-22T11:49:52.475Z,94847.94
2023-05-22T11:52:21.798Z,94844.34
2023-05-22T11:54:49.385Z,94833.16
2023-05-22T11:57:17.038Z,94844.19
2023-05-22T11:59:47.423Z,94838.06
2023-05-22T12:02:17.398Z,94834.72
2023-05-22T12:04:46.072Z,94837.75
2023-05-22T12:07:14.735Z,94833.09
2023-05-22T12:09:43.324Z,94820.03
2023-05-22T12:12:11.793Z,94827.81
2023-05-22T12:14:48.554Z,94825.69
2023-05-22T12:17:18.484Z,94828.03
2023-05-22T12:19:47.724Z,94828.69
2023-05-22T12:22:15.971Z,94826.72
2023-05-22T12:24:48.203Z,94832.16
2023-05-22T12:27:15.906Z,94821.47
2023-05-22T12:29:45.928Z,94824.91
2023-05-22T12:32:20.976Z,94819.81
2023-05-22T12:34:50.492Z,94818.28
2023-05-22T12:37:28.623Z,94821.69
2023-05-22T12:40:07.730Z,94822.03
2023-05-22T12:42:39.376Z,94810.19
2023-05-22T12:45:07.301Z,94814.00
2023-05-22T12:47:34.938Z,94809.09
2023-05-22T12:50:02.294Z,94812.63
2023-05-22T12:52:29.871Z,94815.78
2023-05-22T12:54:57.105Z,94812.38
2023-05-22T12:57:24.685Z,94807.97
2023-05-22T12:59:51.975Z,94824.50
2023-05-22T13:02:19.534Z,94807.28
2023-05-22T13:04:49.420Z,94807.41
2023-05-22T13:07:17.240Z,94800.31
2023-05-22T13:09:44.806Z,94805.66
2023-05-22T13:12:15.274Z,94802.34
2023-05-22T13:14:42.614Z,94781.34
2023-05-22T13:17:10.837Z,94798.66
2023-05-22T13:19:38.633Z,94798.63
2023-05-22T13:22:07.938Z,94802.53
2023-05-22T13:24:35.878Z,94795.63
2023-05-22T13:27:04.405Z,94801.91
2023-05-22T13:29:31.991Z,94795.84
2023-05-22T13:32:01.728Z,94783.97
2023-05-22T13:34:31.284Z,94781.19
2023-05-22T13:36:59.523Z,94785.66
2023-05-22T13:39:26.758Z,94787.22
2023-05-22T13:41:54.536Z,94784.94
2023-05-22T13:44:23.140Z,94786.03
2023-05-22T13:46:50.773Z,94779.03
2023-05-22T13:49:18.416Z,94777.97
2023-05-22T13:51:46.046Z,94774.78
2023-05-22T13:54:13.427Z,94779.19
2023-05-22T13:56:41.488Z,94767.97
2023-05-22T13:59:09.460Z,94776.19
2023-05-22T14:01:37.319Z,94774.91
2023-05-22T14:04:05.738Z,94763.22
2023-05-22T14:06:33.381Z,94773.69
2023-05-22T14:09:00.914Z,94761.50
2023-05-22T14:11:28.674Z,94762.78
2023-05-22T14:13:56.070Z,94757.28
2023-05-22T14:16:23.796Z,94767.31
2023-05-22T14:18:51.343Z,94769.34
2023-05-22T14:21:22.118Z,94758.84
2023-05-22T14:23:49.429Z,94749.50
2023-05-22T14:26:17.096Z,94755.53
2023-05-22T14:28:44.526Z,94760.78
2023-05-22T14:31:12.047Z,94755.63
2023-05-22T14:33:39.380Z,94747.50
2023-05-22T14:36:07.101Z,94742.66
2023-05-22T14:38:34.754Z,94738.91
2023-05-22T14:41:02.968Z,94740.66
2023-05-22T14:43:30.402Z,94739.66
2023-05-22T14:45:59.363Z,94737.53
2023-05-22T14:48:26.970Z,94734.47
2023-05-22T14:50:55.046Z,94745.69
2023-05-22T14:53:23.004Z,94735.75
2023-05-22T14:55:50.816Z,94736.25
2023-05-22T14:58:18.147Z,94732.63
2023-05-22T15:00:48.741Z,94740.25
2023-05-22T15:03:17.056Z,94735.09
2023-05-22T15:05:44.853Z,94736.59
2023-05-22T15:08:12.072Z,94740.19
2023-05-22T15:10:39.637Z,94726.31
2023-05-22T15:13:06.969Z,94728.38
2023-05-22T15:15:34.469Z,94736.31
2023-05-22T15:18:04.978Z,94744.69
2023-05-22T15:20:32.694Z,94742.44
2023-05-22T15:23:00.409Z,94739.19
2023-05-22T15:25:28.134Z,94727.19
2023-05-22T15:27:55.606Z,94729.72
2023-05-22T15:30:23.768Z,94725.47
2023-05-22T15:32:51.150Z,94716.72
2023-05-22T15:35:18.829Z,94726.84
2023-05-22T15:37:46.633Z,94740.31
2023-05-22T15:40:17.553Z,94744.44
2023-05-22T15:42:44.913Z,94733.19
2023-05-22T15:45:12.516Z,94743.06
2023-05-22T15:47:40.044Z,94742.84
2023-05-22T15:50:07.988Z,94741.00
2023-05-22T15:52:35.701Z,94733.59
2023-05-22T15:55:07.544Z,94737.47
2023-05-22T15:57:34.970Z,94734.31
2023-05-22T16:00:02.639Z,94733.00
2023-05-22T16:02:31.594Z,94745.88
2023-05-22T16:04:59.424Z,94748.31
2023-05-22T16:07:26.791Z,94746.88
2023-05-22T16:09:54.452Z,94741.38
2023-05-22T16:12:22.075Z,94746.00
2023-05-22T16:14:49.747Z,94734.47
2023-05-22T16:17:17.025Z,94731.59
2023-05-22T16:19:44.722Z,94742.13
2023-05-22T16:22:11.957Z,94729.25
2023-05-22T16:24:39.605Z,94745.00
2023-05-22T16:27:07.591Z,94749.31
2023-05-22T16:29:35.292Z,94743.13
2023-05-22T16:32:02.757Z,94750.72
2023-05-22T16:34:32.042Z,94745.03
2023-05-22T16:36:59.686Z,94743.94
2023-05-22T16:39:27.551Z,94750.75
2023-05-22T16:41:54.865Z,94746.06
2023-05-22T16:44:22.526Z,94752.25
2023-05-22T16:46:50.126Z,94752.59
2023-05-22T16:49:17.791Z,94748.22
2023-05-22T16:51:45.104Z,94753.50
2023-05-22T16:54:12.637Z,94756.63
2023-05-22T16:56:39.856Z,94754.84
2023-05-22T16:59:07.619Z,94753.59
2023-05-22T17:01:34.964Z,94758.59
2023-05-22T17:04:02.609Z,94766.44
2023-05-22T17:06:30.223Z,94764.00
2023-05-22T17:08:58.115Z,94767.91
2023-05-22T17:11:26.268Z,94766.72
2023-05-22T17:13:53.993Z,94754.38
2023-05-22T17:16:21.390Z,94768.91
2023-05-22T17:18:48.947Z,94760.44
2023-05-22T17:21:17.666Z,94773.63
2023-05-22T17:23:46.459Z,94768.63
2023-05-22T17:26:14.518Z,94779.66
2023-05-22T17:28:42.341Z,94784.66
2023-05-22T17:31:09.551Z,94784.66
2023-05-22T17:33:37.347Z,94774.44
2023-05-22T17:36:04.911Z,94787.47
2023-05-22T17:38:32.617Z,94791.22
2023-05-22T17:41:01.034Z,94789.75
2023-05-22T17:43:28.659Z,94790.84
2023-05-22T17:46:02.082Z,94784.91
2023-05-22T17:48:29.786Z,94784.09
2023-05-22T17:50:57.508Z,94793.81
2023-05-22T17:53:26.645Z,94787.19
2023-05-22T17:55:53.930Z,94779.63
2023-05-22T17:58:21.860Z,94796.50
2023-05-22T18:00:49.282Z,94783.59
2023-05-22T18:03:21.196Z,94785.28
2023-05-22T18:05:49.876Z,94774.97
2023-05-22T18:08:18.823Z,94784.44
2023-05-22T18:10:46.098Z,94770.91
2023-05-22T18:13:13.988Z,94781.47
2023-05-22T18:15:42.164Z,94770.47
2023-05-22T18:18:12.779Z,94776.25
2023-05-22T18:20:40.552Z,94783.66
2023-05-22T18:23:08.477Z,94783.06
2023-05-22T18:25:35.967Z,94767.31
2023-05-22T18:28:03.786Z,94767.84
2023-05-22T18:30:32.727Z,94785.88
2023-05-22T18:33:02.178Z,94789.56
2023-05-22T18:35:29.605Z,94783.72
2023-05-22T18:38:03.584Z,94772.09
2023-05-22T18:40:31.205Z,94786.03
2023-05-22T18:42:59.042Z,94777.31
2023-05-22T18:45:26.369Z,94786.25
2023-05-22T18:47:54.083Z,94781.00
2023-05-22T18:50:23.413Z,94789.16
2023-05-22T18:52:52.609Z,94777.03
2023-05-22T18:55:19.967Z,94778.81
2023-05-22T18:57:48.034Z,94766.19
2023-05-22T19:00:16.063Z,94779.44
2023-05-22T19:02:43.776Z,94784.84
2023-05-22T19:05:11.744Z,94775.28
2023-05-22T19:07:42.125Z,94778.31
2023-05-22T19:10:14.590Z,94768.59
2023-05-22T19:12:42.350Z,94792.03
2023-05-22T19:15:10.356Z,94778.47
2023-05-22T19:17:39.052Z,94792.53
2023-05-22T19:20:07.733Z,94790.25
2023-05-22T19:22:36.009Z,94797.94
2023-05-22T19:25:03.844Z,94793.31
2023-05-22T19:27:31.671Z,94800.97
2023-05-22T19:30:00.595Z,94793.44
2023-05-22T19:32:29.519Z,94781.13
2023-05-22T19:34:57.710Z,94795.47
2023-05-22T19:37:25.390Z,94796.41
2023-05-22T19:39:54.339Z,94798.16
2023-05-22T19:42:22.926Z,94796.88
2023-05-22T19:44:50.211Z,94797.50
2023-05-22T19:47:17.970Z,94797.50
2023-05-22T19:49:45.754Z,94799.41
2023-05-22T19:52:14.847Z,94804.84
2023-05-22T19:54:42.194Z,94793.50
2023-05-22T19:57:09.908Z,94798.13
2023-05-22T19:59:37.191Z,94796.56
2023-05-22T20:02:05.102Z,94802.47
2023-05-22T20:04:32.680Z,94785.66
2023-05-22T20:07:00.397Z,94792.53
2023-05-22T20:09:30.652Z,94796.19
2023-05-22T20:11:58.840Z,94781.84
2023-05-22T20:14:26.292Z,94799.56
2023-05-22T20:16:54.810Z,94808.28
2023-05-22T20:19:24.373Z,94796.00
2023-05-22T20:21:52.824Z,94797.59
2023-05-22T20:24:25.393Z,94786.19
2023-05-22T20:26:53.452Z,94796.13
2023-05-22T20:29:22.263Z,94797.53
2023-05-22T20:31:56.009Z,94791.13
2023-05-22T20:34:26.861Z,94799.59
2023-05-22T20:36:55.033Z,94798.56
2023-05-22T20:39:22.586Z,94793.88
2023-05-22T20:41:50.455Z,94799.34
2023-05-22T20:44:23.781Z,94795.38
2023-05-22T20:46:53.316Z,94797.56
2023-05-22T20:49:21.190Z,94795.88
2023-05-22T20:51:50.347Z,94805.25
2023-05-22T20:54:18.528Z,94799.75
2023-05-22T20:56:46.333Z,94807.28
2023-05-22T20:59:13.632Z,94798.03
2023-05-22T21:01:41.272Z,94795.22
2023-05-22T21:04:08.607Z,94779.03
2023-05-22T21:06:36.239Z,94793.66
2023-05-22T21:09:04.088Z,94786.09
2023-05-22T21:11:31.724Z,94785.78
2023-05-22T21:13:58.944Z,94790.78
2023-05-22T21:16:26.603Z,94783.19
2023-05-22T21:18:53.798Z,94777.19
2023-05-22T21:21:21.710Z,94790.78
2023-05-22T21:23:51.619Z,94788.47
2023-05-22T21:26:22.475Z,94793.16
2023-05-22T21:28:50.329Z,94787.88
2023-05-22T21:31:17.979Z,94792.25
2023-05-22T21:33:45.577Z,94781.94
2023-05-22T21:36:15.994Z,94789.34
2023-05-22T21:38:43.243Z,94789.75
2023-05-22T21:41:11.853Z,94789.75
2023-05-22T21:43:39.218Z,94793.44
2023-05-22T21:46:06.843Z,94797.66
2023-05-22T21:48:34.332Z,94785.16
2023-05-22T21:51:01.934Z,94781.84
2023-05-22T21:53:29.198Z,94784.69
2023-05-22T21:55:56.856Z,94783.78
2023-05-22T21:58:24.043Z,94782.25
2023-05-22T22:00:51.665Z,94777.69
2023-05-22T22:03:19.104Z,94786.28
2023-05-22T22:05:49.705Z,94781.59
2023-05-22T22:08:17.202Z,94789.19
2023-05-22T22:10:44.939Z,94776.16
2023-05-22T22:13:12.121Z,94776.38
2023-05-22T22:15:40.110Z,94780.66
2023-05-22T22:18:07.450Z,94778.66
2023-05-22T22:20:44.101Z,94771.66
2023-05-22T22:23:12.714Z,94783.47
2023-05-22T22:25:40.277Z,94782.84
2023-05-22T22:28:07.732Z,94784.97
2023-05-22T22:30:35.612Z,94775.38
2023-05-22T22:33:03.224Z,94774.78
2023-05-22T22:35:30.952Z,94776.78
2023-05-22T22:37:58.815Z,94774.81
2023-05-22T22:40:27.164Z,94783.97
2023-05-22T22:42:56.895Z,94769.88
2023-05-22T22:54:51.129Z,94758.06
2023-05-22T22:57:19.151Z,94754.88
2023-05-22T22:59:46.315Z,94767.97
2023-05-22T23:02:16.275Z,94763.19
2023-05-22T23:04:43.939Z,94762.56
2023-05-22T23:07:11.666Z,94757.88
2023-05-22T23:09:40.415Z,94755.91
2023-05-22T23:12:08.760Z,94757.56
2023-05-22T23:14:37.785Z,94757.16
2023-05-22T23:17:06.157Z,94759.19
2023-05-22T23:19:33.658Z,94769.78
2023-05-22T23:22:02.096Z,94759.41
2023-05-22T23:24:29.378Z,94768.63
2023-05-22T23:26:57.493Z,94735.28
2023-05-22T23:29:24.958Z,94759.16
2023-05-22T23:31:52.690Z,94758.81
2023-05-22T23:34:20.892Z,94751.69
2023-05-22T23:36:48.776Z,94750.53
2023-05-22T23:39:16.327Z,94756.03
2023-05-22T23:41:44.609Z,94752.09
2023-05-22T23:44:14.890Z,94765.44
2023-05-22T23:46:44.001Z,94754.09
2023-05-22T23:49:11.338Z,94762.81
2023-05-22T23:51:39.057Z,94753.78
2023-05-22T23:54:08.767Z,94760.13
2023-05-22T23:56:36.419Z,94759.91
2023-05-22T23:59:03.615Z,94762.22
